»·PEaware :: RFR12 KLSV-KLSV

RFR12 :: KLSV-KLSV

FLIGHT INFORMATION

Flight Status: Arrived
Operator:
Royal Airforce UK
More flights by this operator :: More flights under this callsign
Pilot: Matthew M. (8235)
Aircraft: BRITISH AERO HAWK T45 GOSHAWK
(HAWK)
More flights by this aircraft type
Origin: KLSV Nellis AFB
United States
Destination: KLSV Nellis AFB
United States
More flights between these airports :: More routes between these airports
Route: +
File this flight plan on PilotEdge
Remarks:
Altitude:
(Current/Filed)
4,500ft
Speed:
(Current/Filed)
300kts
Departed: 10-Dec-19 01:03 PM
Arrived: 10-Dec-19 01:56 PM
Distance/Time
Traveled:
0nm/0:52
Distance/Time
To Go:
Arrived

Flight Plot

Page will automatically refresh every two minutes.


Map Options




Map Legend


Flown Route
Filed Route
Departure Airport
Arrival Airport
Navaid (VOR, NDB)
Fix

Horizontal Profiles

Position Reports

Time Latitude Longitude Heading Altitude Ground
Speed
10-Dec-19 12:32 36.226300 -115.036081 310 1852ft 0kts
10-Dec-19 12:33 36.226300 -115.036081 310 1852ft 0kts
10-Dec-19 12:34 36.226300 -115.036081 310 1852ft 0kts
10-Dec-19 12:35 36.226300 -115.036081 310 1852ft 0kts
10-Dec-19 12:36 36.226300 -115.036081 310 1852ft 0kts
10-Dec-19 12:37 36.226300 -115.036081 310 1852ft 0kts
10-Dec-19 12:38 36.226302 -115.036083 310 1852ft 0kts
10-Dec-19 12:39 36.226302 -115.036083 310 1852ft 0kts
10-Dec-19 12:40 36.226302 -115.036083 310 1852ft 0kts
10-Dec-19 12:41 36.226302 -115.036083 310 1852ft 0kts
10-Dec-19 12:42 36.226302 -115.036083 310 1852ft 0kts
10-Dec-19 12:43 36.226302 -115.036083 310 1852ft 0kts
10-Dec-19 12:44 36.226302 -115.036083 310 1852ft 0kts
10-Dec-19 12:45 36.226302 -115.036083 310 1852ft 0kts
10-Dec-19 12:46 36.226123 -115.036582 206 1852ft 8kts
10-Dec-19 12:47 36.223273 -115.039766 221 1852ft 23kts
10-Dec-19 12:48 36.223011 -115.042080 341 1852ft 0kts
10-Dec-19 12:49 36.223011 -115.042080 341 1852ft 0kts
10-Dec-19 12:50 36.223011 -115.042080 341 1852ft 0kts
10-Dec-19 12:51 36.223011 -115.042080 341 1852ft 0kts
10-Dec-19 12:52 36.223011 -115.042080 341 1852ft 0kts
10-Dec-19 12:53 36.223011 -115.042080 341 1852ft 0kts
10-Dec-19 12:54 36.223011 -115.042080 341 1852ft 0kts
10-Dec-19 12:55 36.223011 -115.042080 341 1852ft 0kts
10-Dec-19 12:56 36.223011 -115.042080 341 1852ft 0kts
10-Dec-19 12:57 36.223011 -115.042080 341 1852ft 0kts
10-Dec-19 12:58 36.223011 -115.042080 341 1852ft 0kts
10-Dec-19 12:59 36.223011 -115.042080 341 1852ft 0kts
10-Dec-19 13:00 36.223013 -115.042081 341 1852ft 0kts
10-Dec-19 13:01 36.224482 -115.043402 309 1852ft 8kts
10-Dec-19 13:02 36.229472 -115.039268 40 1852ft 105kts
10-Dec-19 13:03 36.267379 -114.994781 46 3085ft 262kts
10-Dec-19 13:04 36.324191 -115.008925 284 4744ft 221kts
10-Dec-19 13:05 36.340383 -115.080241 282 5684ft 178kts
10-Dec-19 13:06 36.354665 -115.142957 285 6624ft 183kts
10-Dec-19 13:07 36.368271 -115.212974 281 8012ft 221kts
10-Dec-19 13:08 36.382510 -115.310255 257 7845ft 323kts
10-Dec-19 13:09 36.310069 -115.370578 252 7934ft 296kts
10-Dec-19 13:10 36.333215 -115.450290 354 7782ft 247kts
10-Dec-19 13:11 36.405309 -115.456420 352 7000ft 260kts
10-Dec-19 13:12 36.481726 -115.471795 348 6835ft 272kts
10-Dec-19 13:13 36.559284 -115.483293 354 7233ft 273kts
10-Dec-19 13:14 36.636280 -115.494908 349 7679ft 270kts
10-Dec-19 13:15 36.721934 -115.515249 5 9208ft 357kts
10-Dec-19 13:16 36.788264 -115.410585 42 17969ft 264kts
10-Dec-19 13:17 36.798931 -115.351246 173 20087ft 291kts
10-Dec-19 13:18 36.778092 -115.455845 268 20450ft 385kts
10-Dec-19 13:19 36.780335 -115.598673 275 24172ft 400kts
10-Dec-19 13:20 36.786258 -115.724327 273 31607ft 276kts
10-Dec-19 13:21 36.833724 -115.801750 334 33332ft 326kts
10-Dec-19 13:22 36.923689 -115.760687 50 34817ft 395kts
10-Dec-19 13:23 36.958247 -115.623946 75 36286ft 415kts
10-Dec-19 13:24 36.979050 -115.476204 84 37863ft 422kts
10-Dec-19 13:25 36.958842 -115.330060 119 39037ft 423kts
10-Dec-19 13:26 36.887378 -115.220008 161 40147ft 398kts
10-Dec-19 13:27 36.783254 -115.220248 210 41418ft 352kts
10-Dec-19 13:28 36.730569 -115.318175 260 41954ft 339kts
10-Dec-19 13:29 36.715568 -115.424833 265 44032ft 291kts
10-Dec-19 13:30 36.746244 -115.519298 308 44386ft 300kts
10-Dec-19 13:31 36.827140 -115.569425 339 44307ft 331kts
10-Dec-19 13:32 36.925582 -115.567220 24 43895ft 384kts
10-Dec-19 13:33 36.973758 -115.448248 86 40718ft 427kts
10-Dec-19 13:34 36.925266 -115.376510 112 5310ft 448kts
10-Dec-19 13:35 36.837935 -115.239583 118 5883ft 547kts
10-Dec-19 13:36 36.757476 -115.072760 123 11268ft 471kts
10-Dec-19 13:38 36.745061 -115.134243 295 8295ft 558kts
10-Dec-19 13:39 36.800648 -115.291853 290 5772ft 341kts
10-Dec-19 13:40 36.799795 -115.386761 265 4394ft 219kts
10-Dec-19 13:41 36.817646 -115.448685 311 3461ft 170kts
10-Dec-19 13:42 36.863943 -115.443562 32 8327ft 223kts
10-Dec-19 13:43 36.905435 -115.383278 55 13523ft 235kts
10-Dec-19 13:44 36.886429 -115.307336 154 17395ft 264kts
10-Dec-19 13:45 36.833100 -115.244296 91 19935ft 336kts
10-Dec-19 13:46 36.840422 -115.119424 85 20516ft 336kts
10-Dec-19 13:47 36.828545 -114.997958 105 19680ft 343kts
10-Dec-19 13:48 36.745324 -114.942569 191 16489ft 395kts
10-Dec-19 13:49 36.617068 -114.935361 172 13469ft 536kts
10-Dec-19 13:50 36.477372 -114.920193 178 9836ft 402kts
10-Dec-19 13:51 36.385158 -114.908272 175 7582ft 268kts
10-Dec-19 13:52 36.326953 -114.946137 217 5147ft 228kts
10-Dec-19 13:53 36.278239 -114.988166 213 3036ft 155kts
10-Dec-19 13:54 36.249989 -115.017074 219 1986ft 129kts
10-Dec-19 13:55 36.234978 -115.033313 221 1852ft 48kts
10-Dec-19 13:56 36.231911 -115.035033 134 1852ft 1kts
10-Dec-19 13:57 36.229199 -115.033296 212 1852ft 21kts

Navigation Log

Ident Type
Flight plan parsing failed, navigation log unavailable